sensor_id;sensor_type;location;lat;lon;timestamp;P1;durP1;ratioP1;P2;durP2;ratioP2
48727;SDS011;34527;45.618;5.130;2022-07-23T00:00:16;11.07;;;9.82;;
48727;SDS011;34527;45.618;5.130;2022-07-23T00:02:42;12.32;;;9.82;;
48727;SDS011;34527;45.618;5.130;2022-07-23T00:05:09;33.38;;;12.25;;
48727;SDS011;34527;45.618;5.130;2022-07-23T00:07:37;19.90;;;11.98;;
48727;SDS011;34527;45.618;5.130;2022-07-23T00:10:03;13.65;;;11.65;;
48727;SDS011;34527;45.618;5.130;2022-07-23T00:12:30;15.57;;;13.05;;
48727;SDS011;34527;45.618;5.130;2022-07-23T00:14:56;19.27;;;13.15;;
48727;SDS011;34527;45.618;5.130;2022-07-23T00:17:22;19.70;;;12.98;;
48727;SDS011;34527;45.618;5.130;2022-07-23T00:19:48;17.33;;;14.35;;
48727;SDS011;34527;45.618;5.130;2022-07-23T00:22:13;14.88;;;13.35;;
48727;SDS011;34527;45.618;5.130;2022-07-23T00:24:39;19.90;;;14.60;;
48727;SDS011;34527;45.618;5.130;2022-07-23T00:27:05;19.33;;;14.05;;
48727;SDS011;34527;45.618;5.130;2022-07-23T00:29:31;15.30;;;13.73;;
48727;SDS011;34527;45.618;5.130;2022-07-23T00:31:57;15.93;;;13.82;;
48727;SDS011;34527;45.618;5.130;2022-07-23T00:34:23;18.20;;;16.33;;
48727;SDS011;34527;45.618;5.130;2022-07-23T00:36:49;20.15;;;15.60;;
48727;SDS011;34527;45.618;5.130;2022-07-23T00:39:14;18.80;;;15.48;;
48727;SDS011;34527;45.618;5.130;2022-07-23T00:41:40;18.13;;;16.33;;
48727;SDS011;34527;45.618;5.130;2022-07-23T00:44:17;17.17;;;14.32;;
48727;SDS011;34527;45.618;5.130;2022-07-23T00:46:51;22.73;;;16.55;;
48727;SDS011;34527;45.618;5.130;2022-07-23T00:49:23;18.25;;;15.05;;
48727;SDS011;34527;45.618;5.130;2022-07-23T00:51:50;16.98;;;15.13;;
48727;SDS011;34527;45.618;5.130;2022-07-23T00:54:17;18.15;;;14.10;;
48727;SDS011;34527;45.618;5.130;2022-07-23T00:56:43;18.15;;;14.77;;
48727;SDS011;34527;45.618;5.130;2022-07-23T00:59:10;18.65;;;15.55;;
48727;SDS011;34527;45.618;5.130;2022-07-23T01:01:36;17.77;;;15.32;;
48727;SDS011;34527;45.618;5.130;2022-07-23T01:04:03;14.40;;;12.57;;
48727;SDS011;34527;45.618;5.130;2022-07-23T01:06:29;15.18;;;12.30;;
48727;SDS011;34527;45.618;5.130;2022-07-23T01:08:59;16.17;;;13.02;;
48727;SDS011;34527;45.618;5.130;2022-07-23T01:11:25;13.70;;;12.27;;
48727;SDS011;34527;45.618;5.130;2022-07-23T01:13:52;15.05;;;13.52;;
48727;SDS011;34527;45.618;5.130;2022-07-23T01:16:18;16.92;;;15.15;;
48727;SDS011;34527;45.618;5.130;2022-07-23T01:18:44;17.42;;;14.68;;
48727;SDS011;34527;45.618;5.130;2022-07-23T01:21:11;15.82;;;14.20;;
48727;SDS011;34527;45.618;5.130;2022-07-23T01:23:40;15.38;;;13.73;;
48727;SDS011;34527;45.618;5.130;2022-07-23T01:26:06;16.20;;;13.60;;
48727;SDS011;34527;45.618;5.130;2022-07-23T01:28:32;19.05;;;14.45;;
48727;SDS011;34527;45.618;5.130;2022-07-23T01:30:58;16.50;;;14.50;;
48727;SDS011;34527;45.618;5.130;2022-07-23T01:33:24;15.73;;;14.02;;
48727;SDS011;34527;45.618;5.130;2022-07-23T01:35:50;16.40;;;14.70;;
48727;SDS011;34527;45.618;5.130;2022-07-23T01:38:15;17.38;;;15.32;;
48727;SDS011;34527;45.618;5.130;2022-07-23T01:40:41;18.92;;;15.95;;
48727;SDS011;34527;45.618;5.130;2022-07-23T01:43:07;16.55;;;15.02;;
48727;SDS011;34527;45.618;5.130;2022-07-23T01:45:33;19.40;;;14.93;;
48727;SDS011;34527;45.618;5.130;2022-07-23T01:47:59;16.63;;;15.02;;
48727;SDS011;34527;45.618;5.130;2022-07-23T01:50:25;16.45;;;14.80;;
48727;SDS011;34527;45.618;5.130;2022-07-23T01:52:50;17.48;;;15.68;;
48727;SDS011;34527;45.618;5.130;2022-07-23T01:55:16;18.25;;;16.35;;
48727;SDS011;34527;45.618;5.130;2022-07-23T01:57:42;17.48;;;15.68;;
48727;SDS011;34527;45.618;5.130;2022-07-23T02:00:08;17.83;;;16.05;;
48727;SDS011;34527;45.618;5.130;2022-07-23T02:02:34;19.00;;;16.95;;
48727;SDS011;34527;45.618;5.130;2022-07-23T02:05:00;18.60;;;16.70;;
48727;SDS011;34527;45.618;5.130;2022-07-23T02:07:26;18.83;;;17.08;;
48727;SDS011;34527;45.618;5.130;2022-07-23T02:09:52;18.27;;;16.48;;
48727;SDS011;34527;45.618;5.130;2022-07-23T02:12:18;20.35;;;16.38;;
48727;SDS011;34527;45.618;5.130;2022-07-23T02:14:44;18.48;;;16.45;;
48727;SDS011;34527;45.618;5.130;2022-07-23T02:17:09;18.63;;;16.83;;
48727;SDS011;34527;45.618;5.130;2022-07-23T02:19:35;19.65;;;17.05;;
48727;SDS011;34527;45.618;5.130;2022-07-23T02:22:01;18.08;;;15.68;;
48727;SDS011;34527;45.618;5.130;2022-07-23T02:24:27;19.55;;;14.50;;
48727;SDS011;34527;45.618;5.130;2022-07-23T02:26:53;17.42;;;15.75;;
48727;SDS011;34527;45.618;5.130;2022-07-23T02:29:19;15.82;;;14.32;;
48727;SDS011;34527;45.618;5.130;2022-07-23T02:31:44;14.30;;;12.70;;
48727;SDS011;34527;45.618;5.130;2022-07-23T02:34:11;13.63;;;12.30;;
48727;SDS011;34527;45.618;5.130;2022-07-23T02:36:37;17.35;;;13.85;;
48727;SDS011;34527;45.618;5.130;2022-07-23T02:39:04;17.15;;;14.50;;
48727;SDS011;34527;45.618;5.130;2022-07-23T02:41:30;15.18;;;13.60;;
48727;SDS011;34527;45.618;5.130;2022-07-23T02:43:56;13.65;;;12.23;;
48727;SDS011;34527;45.618;5.130;2022-07-23T02:46:22;14.07;;;12.77;;
48727;SDS011;34527;45.618;5.130;2022-07-23T02:48:48;13.65;;;12.38;;
48727;SDS011;34527;45.618;5.130;2022-07-23T02:51:14;13.25;;;11.93;;
48727;SDS011;34527;45.618;5.130;2022-07-23T02:53:40;15.43;;;12.30;;
48727;SDS011;34527;45.618;5.130;2022-07-23T02:56:07;13.43;;;12.10;;
48727;SDS011;34527;45.618;5.130;2022-07-23T02:58:33;12.40;;;11.10;;
48727;SDS011;34527;45.618;5.130;2022-07-23T03:00:59;13.20;;;11.15;;
48727;SDS011;34527;45.618;5.130;2022-07-23T03:03:25;12.27;;;11.20;;
48727;SDS011;34527;45.618;5.130;2022-07-23T03:05:51;12.55;;;11.38;;
48727;SDS011;34527;45.618;5.130;2022-07-23T03:08:17;13.05;;;11.75;;
48727;SDS011;34527;45.618;5.130;2022-07-23T03:10:42;13.15;;;11.85;;
48727;SDS011;34527;45.618;5.130;2022-07-23T03:13:08;12.70;;;11.48;;
48727;SDS011;34527;45.618;5.130;2022-07-23T03:15:34;12.38;;;11.25;;
48727;SDS011;34527;45.618;5.130;2022-07-23T03:18:00;13.68;;;12.25;;
48727;SDS011;34527;45.618;5.130;2022-07-23T03:20:26;12.82;;;11.57;;
48727;SDS011;34527;45.618;5.130;2022-07-23T03:22:52;12.52;;;10.95;;
48727;SDS011;34527;45.618;5.130;2022-07-23T03:25:18;12.55;;;11.35;;
48727;SDS011;34527;45.618;5.130;2022-07-23T03:27:43;13.65;;;11.65;;
48727;SDS011;34527;45.618;5.130;2022-07-23T03:30:10;13.45;;;11.55;;
48727;SDS011;34527;45.618;5.130;2022-07-23T03:32:37;13.00;;;11.70;;
48727;SDS011;34527;45.618;5.130;2022-07-23T03:35:03;13.25;;;11.65;;
48727;SDS011;34527;45.618;5.130;2022-07-23T03:37:30;13.85;;;12.30;;
48727;SDS011;34527;45.618;5.130;2022-07-23T03:39:55;13.55;;;12.13;;
48727;SDS011;34527;45.618;5.130;2022-07-23T03:42:21;16.65;;;11.73;;
48727;SDS011;34527;45.618;5.130;2022-07-23T03:44:47;13.95;;;11.68;;
48727;SDS011;34527;45.618;5.130;2022-07-23T03:47:13;12.65;;;11.35;;
48727;SDS011;34527;45.618;5.130;2022-07-23T03:49:39;13.18;;;11.93;;
48727;SDS011;34527;45.618;5.130;2022-07-23T03:52:05;13.07;;;10.52;;
48727;SDS011;34527;45.618;5.130;2022-07-23T03:54:31;11.45;;;10.30;;
48727;SDS011;34527;45.618;5.130;2022-07-23T03:56:56;12.40;;;11.07;;
48727;SDS011;34527;45.618;5.130;2022-07-23T03:59:22;13.10;;;11.70;;
48727;SDS011;34527;45.618;5.130;2022-07-23T04:01:48;15.98;;;12.75;;
48727;SDS011;34527;45.618;5.130;2022-07-23T04:04:14;12.52;;;11.23;;
48727;SDS011;34527;45.618;5.130;2022-07-23T04:06:40;16.27;;;12.02;;
48727;SDS011;34527;45.618;5.130;2022-07-23T04:09:06;13.68;;;11.27;;
48727;SDS011;34527;45.618;5.130;2022-07-23T04:11:32;13.55;;;11.23;;
48727;SDS011;34527;45.618;5.130;2022-07-23T04:13:57;12.18;;;10.98;;
48727;SDS011;34527;45.618;5.130;2022-07-23T04:16:23;11.40;;;10.20;;
48727;SDS011;34527;45.618;5.130;2022-07-23T04:18:49;11.30;;;10.15;;
48727;SDS011;34527;45.618;5.130;2022-07-23T04:21:15;12.70;;;10.98;;
48727;SDS011;34527;45.618;5.130;2022-07-23T04:23:41;11.68;;;10.38;;
48727;SDS011;34527;45.618;5.130;2022-07-23T04:26:07;13.77;;;10.60;;
48727;SDS011;34527;45.618;5.130;2022-07-23T04:28:33;14.43;;;11.10;;
48727;SDS011;34527;45.618;5.130;2022-07-23T04:30:59;13.00;;;11.60;;
48727;SDS011;34527;45.618;5.130;2022-07-23T04:33:24;13.90;;;11.90;;
48727;SDS011;34527;45.618;5.130;2022-07-23T04:35:50;12.75;;;11.50;;
48727;SDS011;34527;45.618;5.130;2022-07-23T04:38:16;16.13;;;11.20;;
48727;SDS011;34527;45.618;5.130;2022-07-23T04:40:42;14.20;;;11.45;;
48727;SDS011;34527;45.618;5.130;2022-07-23T04:43:08;13.18;;;11.80;;
48727;SDS011;34527;45.618;5.130;2022-07-23T04:45:34;14.82;;;12.18;;
48727;SDS011;34527;45.618;5.130;2022-07-23T04:48:00;12.57;;;11.27;;
48727;SDS011;34527;45.618;5.130;2022-07-23T04:50:26;12.75;;;11.55;;
48727;SDS011;34527;45.618;5.130;2022-07-23T04:52:52;13.75;;;11.48;;
48727;SDS011;34527;45.618;5.130;2022-07-23T04:55:18;13.98;;;12.57;;
48727;SDS011;34527;45.618;5.130;2022-07-23T04:57:43;13.63;;;12.20;;
48727;SDS011;34527;45.618;5.130;2022-07-23T05:00:10;14.07;;;11.25;;
48727;SDS011;34527;45.618;5.130;2022-07-23T05:02:36;13.13;;;11.77;;
48727;SDS011;34527;45.618;5.130;2022-07-23T05:05:02;13.85;;;12.43;;
48727;SDS011;34527;45.618;5.130;2022-07-23T05:07:28;13.32;;;12.02;;
48727;SDS011;34527;45.618;5.130;2022-07-23T05:09:54;13.25;;;11.65;;
48727;SDS011;34527;45.618;5.130;2022-07-23T05:12:20;13.50;;;12.18;;
48727;SDS011;34527;45.618;5.130;2022-07-23T05:14:46;12.80;;;11.50;;
48727;SDS011;34527;45.618;5.130;2022-07-23T05:17:11;16.33;;;12.18;;
48727;SDS011;34527;45.618;5.130;2022-07-23T05:19:37;13.52;;;12.30;;
48727;SDS011;34527;45.618;5.130;2022-07-23T05:22:03;13.98;;;12.68;;
48727;SDS011;34527;45.618;5.130;2022-07-23T05:24:29;13.10;;;11.82;;
48727;SDS011;34527;45.618;5.130;2022-07-23T05:26:55;14.23;;;12.80;;
48727;SDS011;34527;45.618;5.130;2022-07-23T05:29:21;14.55;;;13.15;;
48727;SDS011;34527;45.618;5.130;2022-07-23T05:31:47;14.10;;;12.32;;
48727;SDS011;34527;45.618;5.130;2022-07-23T05:34:12;15.75;;;12.77;;
48727;SDS011;34527;45.618;5.130;2022-07-23T05:36:38;14.13;;;12.63;;
48727;SDS011;34527;45.618;5.130;2022-07-23T05:39:04;13.02;;;11.85;;
48727;SDS011;34527;45.618;5.130;2022-07-23T05:41:30;13.85;;;12.65;;
48727;SDS011;34527;45.618;5.130;2022-07-23T05:43:56;13.90;;;12.43;;
48727;SDS011;34527;45.618;5.130;2022-07-23T05:46:22;13.45;;;11.60;;
48727;SDS011;34527;45.618;5.130;2022-07-23T05:48:48;15.55;;;12.43;;
48727;SDS011;34527;45.618;5.130;2022-07-23T05:51:20;13.25;;;12.05;;
48727;SDS011;34527;45.618;5.130;2022-07-23T05:53:46;14.10;;;12.25;;
48727;SDS011;34527;45.618;5.130;2022-07-23T05:56:13;14.88;;;11.85;;
48727;SDS011;34527;45.618;5.130;2022-07-23T05:58:39;11.70;;;10.65;;
48727;SDS011;34527;45.618;5.130;2022-07-23T06:01:05;13.77;;;10.93;;
48727;SDS011;34527;45.618;5.130;2022-07-23T06:03:30;12.18;;;10.85;;
48727;SDS011;34527;45.618;5.130;2022-07-23T06:05:56;13.88;;;10.70;;
48727;SDS011;34527;45.618;5.130;2022-07-23T06:08:22;12.68;;;10.00;;
48727;SDS011;34527;45.618;5.130;2022-07-23T06:10:48;11.88;;;10.52;;
48727;SDS011;34527;45.618;5.130;2022-07-23T06:13:14;12.57;;;10.93;;
48727;SDS011;34527;45.618;5.130;2022-07-23T06:15:42;12.05;;;10.80;;
48727;SDS011;34527;45.618;5.130;2022-07-23T06:18:08;12.18;;;10.80;;
48727;SDS011;34527;45.618;5.130;2022-07-23T06:20:34;11.95;;;10.57;;
48727;SDS011;34527;45.618;5.130;2022-07-23T06:22:59;11.77;;;10.57;;
48727;SDS011;34527;45.618;5.130;2022-07-23T06:25:25;13.60;;;11.93;;
48727;SDS011;34527;45.618;5.130;2022-07-23T06:27:51;12.50;;;11.20;;
48727;SDS011;34527;45.618;5.130;2022-07-23T06:30:17;12.88;;;11.27;;
48727;SDS011;34527;45.618;5.130;2022-07-23T06:32:44;13.18;;;11.35;;
48727;SDS011;34527;45.618;5.130;2022-07-23T06:35:11;12.88;;;11.57;;
48727;SDS011;34527;45.618;5.130;2022-07-23T06:37:36;12.77;;;11.65;;
48727;SDS011;34527;45.618;5.130;2022-07-23T06:40:03;13.82;;;11.73;;
48727;SDS011;34527;45.618;5.130;2022-07-23T06:42:29;12.45;;;11.15;;
48727;SDS011;34527;45.618;5.130;2022-07-23T06:44:55;12.57;;;11.40;;
48727;SDS011;34527;45.618;5.130;2022-07-23T06:47:21;12.80;;;11.38;;
48727;SDS011;34527;45.618;5.130;2022-07-23T06:49:47;13.35;;;12.05;;
48727;SDS011;34527;45.618;5.130;2022-07-23T06:52:13;13.52;;;11.93;;
48727;SDS011;34527;45.618;5.130;2022-07-23T06:54:39;13.02;;;11.73;;
48727;SDS011;34527;45.618;5.130;2022-07-23T06:57:05;13.48;;;12.07;;
48727;SDS011;34527;45.618;5.130;2022-07-23T06:59:31;13.27;;;11.98;;
48727;SDS011;34527;45.618;5.130;2022-07-23T07:01:58;12.93;;;11.18;;
48727;SDS011;34527;45.618;5.130;2022-07-23T07:04:24;14.02;;;12.20;;
48727;SDS011;34527;45.618;5.130;2022-07-23T07:06:49;13.38;;;12.07;;
48727;SDS011;34527;45.618;5.130;2022-07-23T07:09:15;12.70;;;11.40;;
48727;SDS011;34527;45.618;5.130;2022-07-23T07:11:41;13.68;;;12.18;;
48727;SDS011;34527;45.618;5.130;2022-07-23T07:14:07;13.55;;;12.00;;
48727;SDS011;34527;45.618;5.130;2022-07-23T07:16:33;15.05;;;12.23;;
48727;SDS011;34527;45.618;5.130;2022-07-23T07:18:59;12.85;;;11.55;;
48727;SDS011;34527;45.618;5.130;2022-07-23T07:21:25;13.38;;;11.95;;
48727;SDS011;34527;45.618;5.130;2022-07-23T07:23:51;12.63;;;11.43;;
48727;SDS011;34527;45.618;5.130;2022-07-23T07:26:16;13.43;;;11.98;;
48727;SDS011;34527;45.618;5.130;2022-07-23T07:28:42;13.60;;;12.30;;
48727;SDS011;34527;45.618;5.130;2022-07-23T07:31:08;12.95;;;11.65;;
48727;SDS011;34527;45.618;5.130;2022-07-23T07:33:34;12.73;;;11.43;;
48727;SDS011;34527;45.618;5.130;2022-07-23T07:36:00;12.60;;;11.40;;
48727;SDS011;34527;45.618;5.130;2022-07-23T07:38:26;12.38;;;11.00;;
48727;SDS011;34527;45.618;5.130;2022-07-23T07:40:51;18.55;;;11.98;;
48727;SDS011;34527;45.618;5.130;2022-07-23T07:43:17;12.02;;;10.73;;
48727;SDS011;34527;45.618;5.130;2022-07-23T07:45:43;20.73;;;10.90;;
48727;SDS011;34527;45.618;5.130;2022-07-23T07:48:09;14.70;;;10.20;;
48727;SDS011;34527;45.618;5.130;2022-07-23T07:50:35;12.15;;;9.98;;
48727;SDS011;34527;45.618;5.130;2022-07-23T07:53:01;12.40;;;10.88;;
48727;SDS011;34527;45.618;5.130;2022-07-23T07:55:27;10.73;;;9.73;;
48727;SDS011;34527;45.618;5.130;2022-07-23T07:57:53;14.80;;;10.48;;
48727;SDS011;34527;45.618;5.130;2022-07-23T08:00:19;13.48;;;10.18;;
48727;SDS011;34527;45.618;5.130;2022-07-23T08:05:12;12.02;;;10.55;;
48727;SDS011;34527;45.618;5.130;2022-07-23T08:07:39;11.00;;;9.90;;
48727;SDS011;34527;45.618;5.130;2022-07-23T08:10:06;10.63;;;9.60;;
48727;SDS011;34527;45.618;5.130;2022-07-23T08:12:46;10.90;;;9.80;;
48727;SDS011;34527;45.618;5.130;2022-07-23T08:15:14;12.38;;;10.52;;
48727;SDS011;34527;45.618;5.130;2022-07-23T08:17:42;10.27;;;9.18;;
48727;SDS011;34527;45.618;5.130;2022-07-23T08:20:10;10.30;;;9.30;;
48727;SDS011;34527;45.618;5.130;2022-07-23T08:22:53;10.40;;;9.40;;
48727;SDS011;34527;45.618;5.130;2022-07-23T08:25:22;10.87;;;9.70;;
48727;SDS011;34527;45.618;5.130;2022-07-23T08:27:59;10.13;;;9.10;;
48727;SDS011;34527;45.618;5.130;2022-07-23T08:30:27;12.23;;;9.82;;
48727;SDS011;34527;45.618;5.130;2022-07-23T08:32:55;11.50;;;10.27;;
48727;SDS011;34527;45.618;5.130;2022-07-23T08:35:33;10.77;;;9.75;;
48727;SDS011;34527;45.618;5.130;2022-07-23T08:38:01;11.10;;;10.00;;
48727;SDS011;34527;45.618;5.130;2022-07-23T08:40:32;10.95;;;9.85;;
48727;SDS011;34527;45.618;5.130;2022-07-23T08:43:00;11.57;;;10.48;;
48727;SDS011;34527;45.618;5.130;2022-07-23T08:45:37;11.38;;;10.20;;
48727;SDS011;34527;45.618;5.130;2022-07-23T08:48:06;12.80;;;10.38;;
48727;SDS011;34527;45.618;5.130;2022-07-23T08:50:34;11.23;;;10.13;;
48727;SDS011;34527;45.618;5.130;2022-07-23T08:53:06;11.05;;;9.77;;
48727;SDS011;34527;45.618;5.130;2022-07-23T08:55:32;10.50;;;9.48;;
48727;SDS011;34527;45.618;5.130;2022-07-23T08:57:59;10.32;;;9.32;;
48727;SDS011;34527;45.618;5.130;2022-07-23T09:00:26;10.38;;;9.38;;
48727;SDS011;34527;45.618;5.130;2022-07-23T09:02:52;10.88;;;9.77;;
48727;SDS011;34527;45.618;5.130;2022-07-23T09:05:18;10.40;;;9.38;;
48727;SDS011;34527;45.618;5.130;2022-07-23T09:10:34;11.48;;;10.02;;
48727;SDS011;34527;45.618;5.130;2022-07-23T09:15:49;9.80;;;8.85;;
48727;SDS011;34527;45.618;5.130;2022-07-23T09:18:16;13.05;;;9.82;;
48727;SDS011;34527;45.618;5.130;2022-07-23T09:20:45;9.73;;;8.60;;
48727;SDS011;34527;45.618;5.130;2022-07-23T09:23:11;9.77;;;8.85;;
48727;SDS011;34527;45.618;5.130;2022-07-23T09:25:37;10.02;;;8.65;;
48727;SDS011;34527;45.618;5.130;2022-07-23T09:28:03;10.63;;;9.63;;
48727;SDS011;34527;45.618;5.130;2022-07-23T09:30:32;9.38;;;8.48;;
48727;SDS011;34527;45.618;5.130;2022-07-23T09:38:11;12.55;;;9.20;;
48727;SDS011;34527;45.618;5.130;2022-07-23T09:40:37;10.98;;;8.98;;
48727;SDS011;34527;45.618;5.130;2022-07-23T09:43:03;9.95;;;8.38;;
48727;SDS011;34527;45.618;5.130;2022-07-23T09:45:29;9.63;;;8.63;;
48727;SDS011;34527;45.618;5.130;2022-07-23T09:48:13;9.85;;;8.80;;
48727;SDS011;34527;45.618;5.130;2022-07-23T09:50:42;9.93;;;8.85;;
48727;SDS011;34527;45.618;5.130;2022-07-23T09:53:09;9.70;;;8.70;;
48727;SDS011;34527;45.618;5.130;2022-07-23T09:55:49;10.55;;;9.25;;
48727;SDS011;34527;45.618;5.130;2022-07-23T09:58:16;10.25;;;9.02;;
48727;SDS011;34527;45.618;5.130;2022-07-23T10:00:46;10.40;;;9.30;;
48727;SDS011;34527;45.618;5.130;2022-07-23T10:03:14;10.88;;;8.60;;
48727;SDS011;34527;45.618;5.130;2022-07-23T10:05:42;9.73;;;8.73;;
48727;SDS011;34527;45.618;5.130;2022-07-23T10:08:11;9.27;;;8.32;;
48727;SDS011;34527;45.618;5.130;2022-07-23T10:10:40;10.52;;;8.77;;
48727;SDS011;34527;45.618;5.130;2022-07-23T10:13:07;9.52;;;8.13;;
48727;SDS011;34527;45.618;5.130;2022-07-23T10:18:19;9.98;;;7.95;;
48727;SDS011;34527;45.618;5.130;2022-07-23T10:20:46;9.07;;;8.18;;
48727;SDS011;34527;45.618;5.130;2022-07-23T10:33:56;10.45;;;9.02;;
48727;SDS011;34527;45.618;5.130;2022-07-23T10:44:39;11.45;;;8.32;;
48727;SDS011;34527;45.618;5.130;2022-07-23T10:47:10;9.70;;;8.15;;
48727;SDS011;34527;45.618;5.130;2022-07-23T10:49:36;14.82;;;8.32;;
48727;SDS011;34527;45.618;5.130;2022-07-23T10:54:47;9.85;;;8.13;;
48727;SDS011;34527;45.618;5.130;2022-07-23T10:57:16;8.85;;;7.95;;
48727;SDS011;34527;45.618;5.130;2022-07-23T11:02:45;10.20;;;7.97;;
48727;SDS011;34527;45.618;5.130;2022-07-23T11:05:16;8.73;;;7.82;;
48727;SDS011;34527;45.618;5.130;2022-07-23T11:10:35;9.43;;;8.50;;
48727;SDS011;34527;45.618;5.130;2022-07-23T11:31:52;8.88;;;7.97;;
48727;SDS011;34527;45.618;5.130;2022-07-23T11:34:30;9.98;;;8.63;;
48727;SDS011;34527;45.618;5.130;2022-07-23T11:37:01;10.90;;;8.60;;
48727;SDS011;34527;45.618;5.130;2022-07-23T11:39:29;9.57;;;8.45;;
48727;SDS011;34527;45.618;5.130;2022-07-23T11:41:56;10.77;;;9.38;;
48727;SDS011;34527;45.618;5.130;2022-07-23T11:46:59;10.85;;;8.32;;
48727;SDS011;34527;45.618;5.130;2022-07-23T11:49:26;9.18;;;8.25;;
48727;SDS011;34527;45.618;5.130;2022-07-23T11:57:31;9.60;;;7.97;;
48727;SDS011;34527;45.618;5.130;2022-07-23T12:00:07;9.00;;;8.10;;
48727;SDS011;34527;45.618;5.130;2022-07-23T12:02:43;11.23;;;8.10;;
48727;SDS011;34527;45.618;5.130;2022-07-23T12:05:11;9.45;;;8.07;;
48727;SDS011;34527;45.618;5.130;2022-07-23T12:07:42;9.77;;;8.85;;
48727;SDS011;34527;45.618;5.130;2022-07-23T12:10:13;9.07;;;7.70;;
48727;SDS011;34527;45.618;5.130;2022-07-23T12:12:45;8.40;;;7.60;;
48727;SDS011;34527;45.618;5.130;2022-07-23T12:15:21;9.65;;;7.63;;
48727;SDS011;34527;45.618;5.130;2022-07-23T12:18:09;9.30;;;8.40;;
48727;SDS011;34527;45.618;5.130;2022-07-23T12:20:37;9.70;;;8.68;;
48727;SDS011;34527;45.618;5.130;2022-07-23T12:23:07;9.38;;;8.40;;
48727;SDS011;34527;45.618;5.130;2022-07-23T12:25:35;11.18;;;8.23;;
48727;SDS011;34527;45.618;5.130;2022-07-23T12:28:04;9.90;;;8.68;;
48727;SDS011;34527;45.618;5.130;2022-07-23T12:30:39;11.73;;;8.73;;
48727;SDS011;34527;45.618;5.130;2022-07-23T12:33:07;9.23;;;7.50;;
48727;SDS011;34527;45.618;5.130;2022-07-23T12:35:46;9.07;;;8.27;;
48727;SDS011;34527;45.618;5.130;2022-07-23T12:38:17;8.70;;;7.93;;
48727;SDS011;34527;45.618;5.130;2022-07-23T12:40:46;10.05;;;7.65;;
48727;SDS011;34527;45.618;5.130;2022-07-23T12:43:26;8.73;;;7.82;;
48727;SDS011;34527;45.618;5.130;2022-07-23T12:48:31;9.05;;;7.68;;
48727;SDS011;34527;45.618;5.130;2022-07-23T12:51:00;9.25;;;7.20;;
48727;SDS011;34527;45.618;5.130;2022-07-23T12:53:29;9.27;;;8.23;;
48727;SDS011;34527;45.618;5.130;2022-07-23T12:56:12;7.90;;;7.20;;
48727;SDS011;34527;45.618;5.130;2022-07-23T12:58:49;9.88;;;7.55;;
48727;SDS011;34527;45.618;5.130;2022-07-23T13:06:30;9.07;;;8.13;;
48727;SDS011;34527;45.618;5.130;2022-07-23T13:08:58;8.20;;;7.50;;
48727;SDS011;34527;45.618;5.130;2022-07-23T13:11:24;8.93;;;8.02;;
48727;SDS011;34527;45.618;5.130;2022-07-23T13:13:50;9.48;;;8.48;;
48727;SDS011;34527;45.618;5.130;2022-07-23T13:16:16;9.68;;;7.53;;
48727;SDS011;34527;45.618;5.130;2022-07-23T13:18:42;8.45;;;7.60;;
48727;SDS011;34527;45.618;5.130;2022-07-23T13:21:08;9.57;;;7.90;;
48727;SDS011;34527;45.618;5.130;2022-07-23T13:23:35;8.85;;;7.72;;
48727;SDS011;34527;45.618;5.130;2022-07-23T13:26:01;10.02;;;8.00;;
48727;SDS011;34527;45.618;5.130;2022-07-23T13:28:27;10.27;;;9.00;;
48727;SDS011;34527;45.618;5.130;2022-07-23T13:30:53;12.32;;;8.48;;
48727;SDS011;34527;45.618;5.130;2022-07-23T13:33:20;8.95;;;8.05;;
48727;SDS011;34527;45.618;5.130;2022-07-23T13:35:48;7.85;;;7.13;;
48727;SDS011;34527;45.618;5.130;2022-07-23T13:38:15;12.18;;;10.88;;
48727;SDS011;34527;45.618;5.130;2022-07-23T13:40:43;9.57;;;8.18;;
48727;SDS011;34527;45.618;5.130;2022-07-23T13:43:11;8.15;;;7.45;;
48727;SDS011;34527;45.618;5.130;2022-07-23T13:45:39;8.40;;;7.47;;
48727;SDS011;34527;45.618;5.130;2022-07-23T13:48:07;9.77;;;7.85;;
48727;SDS011;34527;45.618;5.130;2022-07-23T13:50:34;10.02;;;8.25;;
48727;SDS011;34527;45.618;5.130;2022-07-23T13:53:02;8.98;;;8.13;;
48727;SDS011;34527;45.618;5.130;2022-07-23T13:55:29;8.93;;;7.70;;
48727;SDS011;34527;45.618;5.130;2022-07-23T13:57:56;11.60;;;7.45;;
48727;SDS011;34527;45.618;5.130;2022-07-23T14:00:22;9.02;;;8.23;;
48727;SDS011;34527;45.618;5.130;2022-07-23T14:02:48;9.05;;;8.15;;
48727;SDS011;34527;45.618;5.130;2022-07-23T14:05:13;9.30;;;7.68;;
48727;SDS011;34527;45.618;5.130;2022-07-23T14:07:39;9.40;;;7.90;;
48727;SDS011;34527;45.618;5.130;2022-07-23T14:10:07;10.18;;;7.45;;
48727;SDS011;34527;45.618;5.130;2022-07-23T14:12:34;8.60;;;7.75;;
48727;SDS011;34527;45.618;5.130;2022-07-23T14:15:00;8.68;;;7.30;;
48727;SDS011;34527;45.618;5.130;2022-07-23T14:17:26;8.15;;;7.40;;
48727;SDS011;34527;45.618;5.130;2022-07-23T14:19:52;8.45;;;7.38;;
48727;SDS011;34527;45.618;5.130;2022-07-23T14:22:18;14.23;;;8.68;;
48727;SDS011;34527;45.618;5.130;2022-07-23T14:24:43;8.55;;;7.75;;
48727;SDS011;34527;45.618;5.130;2022-07-23T14:27:09;9.98;;;8.20;;
48727;SDS011;34527;45.618;5.130;2022-07-23T14:29:35;9.98;;;7.80;;
48727;SDS011;34527;45.618;5.130;2022-07-23T14:32:02;9.35;;;6.88;;
48727;SDS011;34527;45.618;5.130;2022-07-23T14:34:28;9.75;;;6.57;;
48727;SDS011;34527;45.618;5.130;2022-07-23T14:36:54;16.13;;;8.93;;
48727;SDS011;34527;45.618;5.130;2022-07-23T14:39:20;7.88;;;7.05;;
48727;SDS011;34527;45.618;5.130;2022-07-23T14:41:46;10.77;;;7.43;;
48727;SDS011;34527;45.618;5.130;2022-07-23T14:44:12;9.10;;;6.82;;
48727;SDS011;34527;45.618;5.130;2022-07-23T14:46:38;8.57;;;6.95;;
48727;SDS011;34527;45.618;5.130;2022-07-23T14:49:04;7.35;;;6.68;;
48727;SDS011;34527;45.618;5.130;2022-07-23T14:51:30;8.60;;;6.82;;
48727;SDS011;34527;45.618;5.130;2022-07-23T14:53:56;9.57;;;7.70;;
48727;SDS011;34527;45.618;5.130;2022-07-23T14:56:22;7.57;;;6.88;;
48727;SDS011;34527;45.618;5.130;2022-07-23T14:58:48;14.27;;;7.07;;
48727;SDS011;34527;45.618;5.130;2022-07-23T15:01:14;7.15;;;6.45;;
48727;SDS011;34527;45.618;5.130;2022-07-23T15:03:40;10.05;;;6.78;;
48727;SDS011;34527;45.618;5.130;2022-07-23T15:06:06;7.20;;;6.18;;
48727;SDS011;34527;45.618;5.130;2022-07-23T15:08:32;11.82;;;6.78;;
48727;SDS011;34527;45.618;5.130;2022-07-23T15:10:58;7.07;;;5.70;;
48727;SDS011;34527;45.618;5.130;2022-07-23T15:13:24;6.18;;;5.57;;
48727;SDS011;34527;45.618;5.130;2022-07-23T15:15:50;6.30;;;5.70;;
48727;SDS011;34527;45.618;5.130;2022-07-23T15:18:15;7.30;;;6.60;;
48727;SDS011;34527;45.618;5.130;2022-07-23T15:20:41;7.97;;;7.18;;
48727;SDS011;34527;45.618;5.130;2022-07-23T15:23:07;7.03;;;6.35;;
48727;SDS011;34527;45.618;5.130;2022-07-23T15:25:34;6.25;;;5.65;;
48727;SDS011;34527;45.618;5.130;2022-07-23T15:28:00;7.53;;;5.93;;
48727;SDS011;34527;45.618;5.130;2022-07-23T15:30:26;12.43;;;7.50;;
48727;SDS011;34527;45.618;5.130;2022-07-23T15:32:53;6.68;;;5.65;;
48727;SDS011;34527;45.618;5.130;2022-07-23T15:35:19;6.40;;;5.80;;
48727;SDS011;34527;45.618;5.130;2022-07-23T15:37:45;6.85;;;6.05;;
48727;SDS011;34527;45.618;5.130;2022-07-23T15:40:11;7.07;;;6.35;;
48727;SDS011;34527;45.618;5.130;2022-07-23T15:42:38;8.40;;;6.80;;
48727;SDS011;34527;45.618;5.130;2022-07-23T15:45:04;8.93;;;6.25;;
48727;SDS011;34527;45.618;5.130;2022-07-23T15:47:30;7.13;;;6.35;;